sensor_id;sensor_type;location;lat;lon;timestamp;P1;durP1;ratioP1;P2;durP2;ratioP2
69629;SDS011;56857;52.212;5.496;2023-05-10T00:01:51;20.52;;;11.57;;
69629;SDS011;56857;52.212;5.496;2023-05-10T00:04:17;20.23;;;12.75;;
69629;SDS011;56857;52.212;5.496;2023-05-10T00:06:42;20.27;;;12.07;;
69629;SDS011;56857;52.212;5.496;2023-05-10T00:09:07;24.27;;;13.38;;
69629;SDS011;56857;52.212;5.496;2023-05-10T00:11:32;21.92;;;12.40;;
69629;SDS011;56857;52.212;5.496;2023-05-10T00:13:58;21.48;;;12.77;;
69629;SDS011;56857;52.212;5.496;2023-05-10T00:16:23;21.48;;;12.55;;
69629;SDS011;56857;52.212;5.496;2023-05-10T00:18:48;21.17;;;11.93;;
69629;SDS011;56857;52.212;5.496;2023-05-10T00:21:14;24.33;;;14.02;;
69629;SDS011;56857;52.212;5.496;2023-05-10T00:23:39;22.17;;;12.90;;
69629;SDS011;56857;52.212;5.496;2023-05-10T00:26:05;22.70;;;13.20;;
69629;SDS011;56857;52.212;5.496;2023-05-10T00:28:31;22.88;;;12.95;;
69629;SDS011;56857;52.212;5.496;2023-05-10T00:30:56;23.48;;;12.68;;
69629;SDS011;56857;52.212;5.496;2023-05-10T00:33:21;22.43;;;12.50;;
69629;SDS011;56857;52.212;5.496;2023-05-10T00:35:46;25.83;;;13.25;;
69629;SDS011;56857;52.212;5.496;2023-05-10T00:38:13;26.07;;;13.93;;
69629;SDS011;56857;52.212;5.496;2023-05-10T00:40:38;26.83;;;13.93;;
69629;SDS011;56857;52.212;5.496;2023-05-10T00:43:06;27.83;;;15.30;;
69629;SDS011;56857;52.212;5.496;2023-05-10T00:45:32;26.40;;;14.38;;
69629;SDS011;56857;52.212;5.496;2023-05-10T00:47:58;30.10;;;15.05;;
69629;SDS011;56857;52.212;5.496;2023-05-10T00:50:26;25.08;;;13.05;;
69629;SDS011;56857;52.212;5.496;2023-05-10T00:52:51;28.27;;;14.73;;
69629;SDS011;56857;52.212;5.496;2023-05-10T00:55:17;28.15;;;15.32;;
69629;SDS011;56857;52.212;5.496;2023-05-10T00:57:45;27.25;;;14.52;;
69629;SDS011;56857;52.212;5.496;2023-05-10T01:00:11;28.45;;;15.77;;
69629;SDS011;56857;52.212;5.496;2023-05-10T01:02:38;32.05;;;16.13;;
69629;SDS011;56857;52.212;5.496;2023-05-10T01:05:05;27.65;;;14.85;;
69629;SDS011;56857;52.212;5.496;2023-05-10T01:07:31;28.83;;;14.73;;
69629;SDS011;56857;52.212;5.496;2023-05-10T01:09:56;29.90;;;15.02;;
69629;SDS011;56857;52.212;5.496;2023-05-10T01:12:22;32.38;;;15.77;;
69629;SDS011;56857;52.212;5.496;2023-05-10T01:14:47;34.35;;;18.02;;
69629;SDS011;56857;52.212;5.496;2023-05-10T01:17:13;31.73;;;16.92;;
69629;SDS011;56857;52.212;5.496;2023-05-10T01:19:39;32.05;;;15.90;;
69629;SDS011;56857;52.212;5.496;2023-05-10T01:35:03;45.63;;;22.00;;
69629;SDS011;56857;52.212;5.496;2023-05-10T01:37:39;42.28;;;20.95;;
69629;SDS011;56857;52.212;5.496;2023-05-10T01:40:13;43.50;;;21.60;;
69629;SDS011;56857;52.212;5.496;2023-05-10T01:42:48;45.45;;;21.50;;
69629;SDS011;56857;52.212;5.496;2023-05-10T01:47:43;47.55;;;22.77;;
69629;SDS011;56857;52.212;5.496;2023-05-10T01:50:18;43.72;;;20.60;;
69629;SDS011;56857;52.212;5.496;2023-05-10T01:52:49;45.10;;;21.30;;
69629;SDS011;56857;52.212;5.496;2023-05-10T01:55:18;39.92;;;19.52;;
69629;SDS011;56857;52.212;5.496;2023-05-10T01:57:46;42.20;;;19.98;;
69629;SDS011;56857;52.212;5.496;2023-05-10T02:00:16;43.45;;;20.88;;
69629;SDS011;56857;52.212;5.496;2023-05-10T02:02:47;43.28;;;20.60;;
69629;SDS011;56857;52.212;5.496;2023-05-10T02:05:14;41.95;;;20.73;;
69629;SDS011;56857;52.212;5.496;2023-05-10T02:07:42;49.35;;;23.30;;
69629;SDS011;56857;52.212;5.496;2023-05-10T02:10:09;45.15;;;21.92;;
69629;SDS011;56857;52.212;5.496;2023-05-10T02:12:37;49.05;;;23.27;;
69629;SDS011;56857;52.212;5.496;2023-05-10T02:15:07;48.08;;;22.65;;
69629;SDS011;56857;52.212;5.496;2023-05-10T02:17:34;47.25;;;22.80;;
69629;SDS011;56857;52.212;5.496;2023-05-10T02:20:01;45.15;;;22.05;;
69629;SDS011;56857;52.212;5.496;2023-05-10T02:22:28;50.40;;;23.60;;
69629;SDS011;56857;52.212;5.496;2023-05-10T02:24:54;52.05;;;23.15;;
69629;SDS011;56857;52.212;5.496;2023-05-10T02:27:22;45.05;;;22.70;;
69629;SDS011;56857;52.212;5.496;2023-05-10T02:29:49;54.08;;;24.10;;
69629;SDS011;56857;52.212;5.496;2023-05-10T02:32:16;48.85;;;22.23;;
69629;SDS011;56857;52.212;5.496;2023-05-10T02:34:42;46.63;;;23.33;;
69629;SDS011;56857;52.212;5.496;2023-05-10T02:37:09;40.67;;;20.58;;
69629;SDS011;56857;52.212;5.496;2023-05-10T02:39:36;48.05;;;24.20;;
69629;SDS011;56857;52.212;5.496;2023-05-10T02:42:02;44.97;;;22.73;;
69629;SDS011;56857;52.212;5.496;2023-05-10T02:44:28;57.70;;;24.17;;
69629;SDS011;56857;52.212;5.496;2023-05-10T02:46:55;53.03;;;24.35;;
69629;SDS011;56857;52.212;5.496;2023-05-10T02:49:20;47.90;;;22.83;;
69629;SDS011;56857;52.212;5.496;2023-05-10T02:51:47;50.10;;;24.05;;
69629;SDS011;56857;52.212;5.496;2023-05-10T02:54:18;48.03;;;22.80;;
69629;SDS011;56857;52.212;5.496;2023-05-10T02:56:53;47.28;;;21.67;;
69629;SDS011;56857;52.212;5.496;2023-05-10T02:59:22;43.50;;;21.90;;
69629;SDS011;56857;52.212;5.496;2023-05-10T03:01:48;51.53;;;22.70;;
69629;SDS011;56857;52.212;5.496;2023-05-10T03:04:13;49.95;;;23.25;;
69629;SDS011;56857;52.212;5.496;2023-05-10T03:06:38;52.30;;;22.42;;
69629;SDS011;56857;52.212;5.496;2023-05-10T03:09:04;46.55;;;22.23;;
69629;SDS011;56857;52.212;5.496;2023-05-10T03:11:52;55.83;;;23.00;;
69629;SDS011;56857;52.212;5.496;2023-05-10T03:20:03;51.78;;;23.10;;
69629;SDS011;56857;52.212;5.496;2023-05-10T03:22:50;52.42;;;22.35;;
69629;SDS011;56857;52.212;5.496;2023-05-10T03:25:18;51.05;;;23.17;;
69629;SDS011;56857;52.212;5.496;2023-05-10T03:27:57;58.85;;;24.88;;
69629;SDS011;56857;52.212;5.496;2023-05-10T03:30:24;60.15;;;23.40;;
69629;SDS011;56857;52.212;5.496;2023-05-10T03:32:50;56.88;;;23.52;;
69629;SDS011;56857;52.212;5.496;2023-05-10T03:35:16;53.83;;;23.10;;
69629;SDS011;56857;52.212;5.496;2023-05-10T03:37:41;56.17;;;23.17;;
69629;SDS011;56857;52.212;5.496;2023-05-10T03:40:06;57.78;;;23.52;;
69629;SDS011;56857;52.212;5.496;2023-05-10T03:42:33;77.85;;;28.30;;
69629;SDS011;56857;52.212;5.496;2023-05-10T03:44:58;61.80;;;23.33;;
69629;SDS011;56857;52.212;5.496;2023-05-10T03:47:23;61.85;;;25.55;;
69629;SDS011;56857;52.212;5.496;2023-05-10T03:49:48;62.63;;;24.40;;
69629;SDS011;56857;52.212;5.496;2023-05-10T03:52:14;60.55;;;26.30;;
69629;SDS011;56857;52.212;5.496;2023-05-10T03:54:39;60.20;;;23.48;;
69629;SDS011;56857;52.212;5.496;2023-05-10T03:57:07;68.75;;;24.95;;
69629;SDS011;56857;52.212;5.496;2023-05-10T03:59:32;62.10;;;24.45;;
69629;SDS011;56857;52.212;5.496;2023-05-10T04:01:57;67.60;;;24.50;;
69629;SDS011;56857;52.212;5.496;2023-05-10T04:04:23;59.67;;;23.40;;
69629;SDS011;56857;52.212;5.496;2023-05-10T04:06:48;60.15;;;23.92;;
69629;SDS011;56857;52.212;5.496;2023-05-10T04:09:14;71.00;;;26.17;;
69629;SDS011;56857;52.212;5.496;2023-05-10T04:11:40;63.67;;;23.90;;
69629;SDS011;56857;52.212;5.496;2023-05-10T04:14:05;68.43;;;25.70;;
69629;SDS011;56857;52.212;5.496;2023-05-10T04:16:30;64.43;;;23.70;;
69629;SDS011;56857;52.212;5.496;2023-05-10T04:18:56;71.53;;;24.63;;
69629;SDS011;56857;52.212;5.496;2023-05-10T04:21:21;66.43;;;24.55;;
69629;SDS011;56857;52.212;5.496;2023-05-10T04:23:47;66.68;;;24.65;;
69629;SDS011;56857;52.212;5.496;2023-05-10T04:26:12;70.07;;;25.15;;
69629;SDS011;56857;52.212;5.496;2023-05-10T04:28:38;71.20;;;25.02;;
69629;SDS011;56857;52.212;5.496;2023-05-10T04:31:04;74.45;;;24.75;;
69629;SDS011;56857;52.212;5.496;2023-05-10T04:33:30;101.47;;;28.95;;
69629;SDS011;56857;52.212;5.496;2023-05-10T04:35:56;79.30;;;25.38;;
69629;SDS011;56857;52.212;5.496;2023-05-10T04:38:22;81.38;;;25.20;;
69629;SDS011;56857;52.212;5.496;2023-05-10T04:40:47;84.03;;;30.52;;
69629;SDS011;56857;52.212;5.496;2023-05-10T04:43:12;78.40;;;26.13;;
69629;SDS011;56857;52.212;5.496;2023-05-10T04:45:38;73.82;;;26.20;;
69629;SDS011;56857;52.212;5.496;2023-05-10T04:48:03;75.82;;;26.15;;
69629;SDS011;56857;52.212;5.496;2023-05-10T04:50:29;74.20;;;26.75;;
69629;SDS011;56857;52.212;5.496;2023-05-10T04:52:54;77.78;;;27.02;;
69629;SDS011;56857;52.212;5.496;2023-05-10T04:55:20;70.07;;;25.83;;
69629;SDS011;56857;52.212;5.496;2023-05-10T04:57:45;61.00;;;24.13;;
69629;SDS011;56857;52.212;5.496;2023-05-10T05:00:11;85.10;;;28.48;;
69629;SDS011;56857;52.212;5.496;2023-05-10T05:02:36;64.45;;;24.85;;
69629;SDS011;56857;52.212;5.496;2023-05-10T05:05:01;70.13;;;26.33;;
69629;SDS011;56857;52.212;5.496;2023-05-10T05:07:27;74.28;;;28.95;;
69629;SDS011;56857;52.212;5.496;2023-05-10T05:09:52;60.57;;;27.07;;
69629;SDS011;56857;52.212;5.496;2023-05-10T05:12:17;63.40;;;26.67;;
69629;SDS011;56857;52.212;5.496;2023-05-10T05:14:43;57.92;;;26.23;;
69629;SDS011;56857;52.212;5.496;2023-05-10T05:17:09;60.28;;;26.02;;
69629;SDS011;56857;52.212;5.496;2023-05-10T05:19:34;64.40;;;29.48;;
69629;SDS011;56857;52.212;5.496;2023-05-10T05:22:00;61.25;;;27.42;;
69629;SDS011;56857;52.212;5.496;2023-05-10T05:24:25;75.97;;;29.50;;
69629;SDS011;56857;52.212;5.496;2023-05-10T05:26:50;66.85;;;26.73;;
69629;SDS011;56857;52.212;5.496;2023-05-10T05:29:16;54.70;;;24.95;;
69629;SDS011;56857;52.212;5.496;2023-05-10T05:31:41;52.90;;;23.27;;
69629;SDS011;56857;52.212;5.496;2023-05-10T05:34:12;57.45;;;24.23;;
69629;SDS011;56857;52.212;5.496;2023-05-10T05:36:39;53.13;;;23.10;;
69629;SDS011;56857;52.212;5.496;2023-05-10T05:39:04;67.38;;;25.20;;
69629;SDS011;56857;52.212;5.496;2023-05-10T05:41:31;57.00;;;23.30;;
69629;SDS011;56857;52.212;5.496;2023-05-10T05:43:56;48.67;;;22.40;;
69629;SDS011;56857;52.212;5.496;2023-05-10T05:46:21;62.88;;;25.23;;
69629;SDS011;56857;52.212;5.496;2023-05-10T05:48:47;63.80;;;26.08;;
69629;SDS011;56857;52.212;5.496;2023-05-10T05:51:12;80.93;;;28.73;;
69629;SDS011;56857;52.212;5.496;2023-05-10T05:53:38;51.60;;;22.40;;
69629;SDS011;56857;52.212;5.496;2023-05-10T05:56:03;48.20;;;20.60;;
69629;SDS011;56857;52.212;5.496;2023-05-10T05:58:29;53.40;;;24.20;;
69629;SDS011;56857;52.212;5.496;2023-05-10T06:00:54;47.47;;;21.57;;
69629;SDS011;56857;52.212;5.496;2023-05-10T06:03:20;55.15;;;23.52;;
69629;SDS011;56857;52.212;5.496;2023-05-10T06:05:45;47.92;;;21.45;;
69629;SDS011;56857;52.212;5.496;2023-05-10T06:08:11;55.58;;;23.70;;
69629;SDS011;56857;52.212;5.496;2023-05-10T06:10:37;69.43;;;24.77;;
69629;SDS011;56857;52.212;5.496;2023-05-10T06:13:02;58.25;;;24.33;;
69629;SDS011;56857;52.212;5.496;2023-05-10T06:15:27;58.65;;;25.33;;
69629;SDS011;56857;52.212;5.496;2023-05-10T06:17:53;58.67;;;23.90;;
69629;SDS011;56857;52.212;5.496;2023-05-10T06:20:18;60.33;;;24.40;;
69629;SDS011;56857;52.212;5.496;2023-05-10T06:22:43;44.15;;;22.30;;
69629;SDS011;56857;52.212;5.496;2023-05-10T06:25:09;52.75;;;21.85;;
69629;SDS011;56857;52.212;5.496;2023-05-10T06:27:34;59.58;;;24.75;;
69629;SDS011;56857;52.212;5.496;2023-05-10T06:30:00;54.03;;;22.23;;
69629;SDS011;56857;52.212;5.496;2023-05-10T06:32:26;51.75;;;19.83;;
69629;SDS011;56857;52.212;5.496;2023-05-10T06:34:52;54.58;;;22.08;;
69629;SDS011;56857;52.212;5.496;2023-05-10T06:37:18;46.03;;;20.98;;
69629;SDS011;56857;52.212;5.496;2023-05-10T06:39:44;43.05;;;19.85;;
69629;SDS011;56857;52.212;5.496;2023-05-10T06:42:10;39.55;;;18.95;;
69629;SDS011;56857;52.212;5.496;2023-05-10T06:44:35;41.60;;;17.75;;
69629;SDS011;56857;52.212;5.496;2023-05-10T06:47:01;36.17;;;16.52;;
69629;SDS011;56857;52.212;5.496;2023-05-10T06:49:26;36.33;;;17.48;;
69629;SDS011;56857;52.212;5.496;2023-05-10T06:51:51;43.13;;;17.77;;
69629;SDS011;56857;52.212;5.496;2023-05-10T06:54:17;39.60;;;18.07;;
69629;SDS011;56857;52.212;5.496;2023-05-10T06:56:42;35.83;;;19.05;;
69629;SDS011;56857;52.212;5.496;2023-05-10T06:59:08;40.43;;;18.67;;
69629;SDS011;56857;52.212;5.496;2023-05-10T07:01:33;42.10;;;20.05;;
69629;SDS011;56857;52.212;5.496;2023-05-10T07:03:58;41.27;;;20.57;;
69629;SDS011;56857;52.212;5.496;2023-05-10T07:06:24;40.60;;;20.02;;
69629;SDS011;56857;52.212;5.496;2023-05-10T07:08:49;40.88;;;18.80;;
69629;SDS011;56857;52.212;5.496;2023-05-10T07:11:14;35.75;;;17.90;;
69629;SDS011;56857;52.212;5.496;2023-05-10T07:13:40;37.38;;;16.55;;
69629;SDS011;56857;52.212;5.496;2023-05-10T07:16:05;34.20;;;15.77;;
69629;SDS011;56857;52.212;5.496;2023-05-10T07:18:30;35.03;;;16.27;;
69629;SDS011;56857;52.212;5.496;2023-05-10T07:20:56;37.85;;;17.92;;
69629;SDS011;56857;52.212;5.496;2023-05-10T07:23:22;42.83;;;17.73;;
69629;SDS011;56857;52.212;5.496;2023-05-10T07:25:48;32.75;;;16.05;;
69629;SDS011;56857;52.212;5.496;2023-05-10T07:28:14;35.08;;;16.35;;
69629;SDS011;56857;52.212;5.496;2023-05-10T07:30:40;34.10;;;15.38;;
69629;SDS011;56857;52.212;5.496;2023-05-10T07:33:07;30.02;;;15.57;;
69629;SDS011;56857;52.212;5.496;2023-05-10T07:35:33;32.50;;;14.25;;
69629;SDS011;56857;52.212;5.496;2023-05-10T07:37:58;25.90;;;13.07;;
69629;SDS011;56857;52.212;5.496;2023-05-10T07:40:24;28.95;;;15.07;;
69629;SDS011;56857;52.212;5.496;2023-05-10T07:42:49;25.95;;;12.68;;
69629;SDS011;56857;52.212;5.496;2023-05-10T07:45:14;25.35;;;12.13;;
69629;SDS011;56857;52.212;5.496;2023-05-10T07:47:40;26.45;;;12.50;;
69629;SDS011;56857;52.212;5.496;2023-05-10T07:50:05;21.85;;;11.57;;
69629;SDS011;56857;52.212;5.496;2023-05-10T07:52:31;28.30;;;12.68;;
69629;SDS011;56857;52.212;5.496;2023-05-10T07:54:56;28.92;;;12.45;;
69629;SDS011;56857;52.212;5.496;2023-05-10T07:57:22;20.50;;;11.40;;
69629;SDS011;56857;52.212;5.496;2023-05-10T07:59:47;23.80;;;11.97;;
69629;SDS011;56857;52.212;5.496;2023-05-10T08:02:12;29.00;;;13.45;;
69629;SDS011;56857;52.212;5.496;2023-05-10T08:04:38;26.23;;;12.85;;
69629;SDS011;56857;52.212;5.496;2023-05-10T08:07:03;25.08;;;12.48;;
69629;SDS011;56857;52.212;5.496;2023-05-10T08:09:28;25.95;;;12.98;;
69629;SDS011;56857;52.212;5.496;2023-05-10T08:11:54;24.90;;;11.68;;
69629;SDS011;56857;52.212;5.496;2023-05-10T08:14:19;21.50;;;11.37;;
69629;SDS011;56857;52.212;5.496;2023-05-10T08:16:44;24.00;;;12.23;;
69629;SDS011;56857;52.212;5.496;2023-05-10T08:19:10;20.08;;;10.50;;
69629;SDS011;56857;52.212;5.496;2023-05-10T08:21:35;22.05;;;10.88;;
69629;SDS011;56857;52.212;5.496;2023-05-10T08:24:00;23.00;;;10.63;;
69629;SDS011;56857;52.212;5.496;2023-05-10T08:26:25;22.20;;;9.98;;
69629;SDS011;56857;52.212;5.496;2023-05-10T08:28:51;23.10;;;11.07;;
69629;SDS011;56857;52.212;5.496;2023-05-10T08:31:16;20.88;;;9.70;;
69629;SDS011;56857;52.212;5.496;2023-05-10T08:33:43;22.00;;;9.77;;
69629;SDS011;56857;52.212;5.496;2023-05-10T08:36:08;17.58;;;9.10;;
69629;SDS011;56857;52.212;5.496;2023-05-10T08:38:34;19.42;;;9.18;;
69629;SDS011;56857;52.212;5.496;2023-05-10T08:40:59;16.10;;;8.67;;
69629;SDS011;56857;52.212;5.496;2023-05-10T08:43:27;16.02;;;8.18;;
69629;SDS011;56857;52.212;5.496;2023-05-10T08:45:54;16.30;;;9.18;;
69629;SDS011;56857;52.212;5.496;2023-05-10T08:48:19;13.55;;;7.50;;
69629;SDS011;56857;52.212;5.496;2023-05-10T08:50:48;16.45;;;8.45;;
69629;SDS011;56857;52.212;5.496;2023-05-10T08:53:17;14.32;;;7.88;;
69629;SDS011;56857;52.212;5.496;2023-05-10T08:55:44;15.75;;;8.70;;
69629;SDS011;56857;52.212;5.496;2023-05-10T08:58:10;14.88;;;8.10;;
69629;SDS011;56857;52.212;5.496;2023-05-10T09:00:36;14.33;;;8.27;;
69629;SDS011;56857;52.212;5.496;2023-05-10T09:03:02;14.77;;;8.57;;
69629;SDS011;56857;52.212;5.496;2023-05-10T09:05:29;15.88;;;7.70;;
69629;SDS011;56857;52.212;5.496;2023-05-10T09:07:54;14.90;;;8.13;;
69629;SDS011;56857;52.212;5.496;2023-05-10T09:10:21;16.58;;;8.88;;
69629;SDS011;56857;52.212;5.496;2023-05-10T09:12:47;16.70;;;9.13;;
69629;SDS011;56857;52.212;5.496;2023-05-10T09:15:16;12.95;;;7.45;;
69629;SDS011;56857;52.212;5.496;2023-05-10T09:17:42;15.45;;;8.30;;
69629;SDS011;56857;52.212;5.496;2023-05-10T09:20:09;15.52;;;7.90;;
69629;SDS011;56857;52.212;5.496;2023-05-10T09:22:34;13.20;;;7.22;;
69629;SDS011;56857;52.212;5.496;2023-05-10T09:25:13;13.98;;;8.13;;
69629;SDS011;56857;52.212;5.496;2023-05-10T09:27:40;15.57;;;9.02;;
69629;SDS011;56857;52.212;5.496;2023-05-10T09:30:09;16.92;;;7.15;;
69629;SDS011;56857;52.212;5.496;2023-05-10T09:32:38;16.58;;;7.43;;
69629;SDS011;56857;52.212;5.496;2023-05-10T09:35:18;15.07;;;7.50;;
69629;SDS011;56857;52.212;5.496;2023-05-10T09:37:46;14.20;;;7.43;;
69629;SDS011;56857;52.212;5.496;2023-05-10T09:40:16;13.50;;;7.38;;
69629;SDS011;56857;52.212;5.496;2023-05-10T09:42:50;14.25;;;7.85;;
69629;SDS011;56857;52.212;5.496;2023-05-10T09:45:29;12.68;;;6.55;;
69629;SDS011;56857;52.212;5.496;2023-05-10T09:47:55;11.32;;;5.65;;
69629;SDS011;56857;52.212;5.496;2023-05-10T09:50:22;12.23;;;5.60;;
69629;SDS011;56857;52.212;5.496;2023-05-10T09:52:52;13.70;;;6.15;;
69629;SDS011;56857;52.212;5.496;2023-05-10T09:55:20;12.35;;;6.28;;
69629;SDS011;56857;52.212;5.496;2023-05-10T09:57:47;12.65;;;7.00;;
69629;SDS011;56857;52.212;5.496;2023-05-10T10:00:16;10.40;;;5.32;;
69629;SDS011;56857;52.212;5.496;2023-05-10T10:02:48;10.43;;;5.38;;
69629;SDS011;56857;52.212;5.496;2023-05-10T10:05:19;13.18;;;6.00;;
69629;SDS011;56857;52.212;5.496;2023-05-10T10:07:45;11.02;;;5.88;;
69629;SDS011;56857;52.212;5.496;2023-05-10T10:10:11;11.57;;;5.28;;
69629;SDS011;56857;52.212;5.496;2023-05-10T10:12:37;11.73;;;6.32;;
69629;SDS011;56857;52.212;5.496;2023-05-10T10:15:03;10.90;;;6.00;;
69629;SDS011;56857;52.212;5.496;2023-05-10T10:17:29;12.00;;;6.00;;
69629;SDS011;56857;52.212;5.496;2023-05-10T10:19:56;12.93;;;5.85;;
69629;SDS011;56857;52.212;5.496;2023-05-10T10:22:22;10.57;;;5.40;;
69629;SDS011;56857;52.212;5.496;2023-05-10T10:24:47;11.50;;;6.15;;
69629;SDS011;56857;52.212;5.496;2023-05-10T10:27:18;10.40;;;5.32;;
69629;SDS011;56857;52.212;5.496;2023-05-10T10:29:58;11.40;;;5.80;;
69629;SDS011;56857;52.212;5.496;2023-05-10T10:32:37;12.20;;;5.22;;
69629;SDS011;56857;52.212;5.496;2023-05-10T10:35:20;10.15;;;5.93;;
69629;SDS011;56857;52.212;5.496;2023-05-10T10:37:46;11.10;;;5.57;;
69629;SDS011;56857;52.212;5.496;2023-05-10T10:42:50;11.45;;;6.32;;
69629;SDS011;56857;52.212;5.496;2023-05-10T10:45:15;11.70;;;6.68;;
69629;SDS011;56857;52.212;5.496;2023-05-10T10:47:40;11.13;;;6.10;;
69629;SDS011;56857;52.212;5.496;2023-05-10T10:50:06;11.52;;;6.13;;
69629;SDS011;56857;52.212;5.496;2023-05-10T10:52:38;11.40;;;6.60;;
69629;SDS011;56857;52.212;5.496;2023-05-10T10:55:08;11.73;;;5.38;;
69629;SDS011;56857;52.212;5.496;2023-05-10T11:00:21;11.05;;;5.50;;
69629;SDS011;56857;52.212;5.496;2023-05-10T11:02:52;12.05;;;5.93;;
69629;SDS011;56857;52.212;5.496;2023-05-10T11:07:56;11.35;;;6.50;;
69629;SDS011;56857;52.212;5.496;2023-05-10T11:10:22;11.52;;;6.68;;
69629;SDS011;56857;52.212;5.496;2023-05-10T11:13:01;10.50;;;5.70;;
69629;SDS011;56857;52.212;5.496;2023-05-10T11:15:29;11.68;;;6.18;;
69629;SDS011;56857;52.212;5.496;2023-05-10T11:17:59;10.95;;;6.13;;
69629;SDS011;56857;52.212;5.496;2023-05-10T11:20:27;11.32;;;6.50;;
69629;SDS011;56857;52.212;5.496;2023-05-10T11:22:53;11.07;;;5.90;;
69629;SDS011;56857;52.212;5.496;2023-05-10T11:25:19;11.70;;;6.20;;
69629;SDS011;56857;52.212;5.496;2023-05-10T11:27:45;15.15;;;7.00;;
69629;SDS011;56857;52.212;5.496;2023-05-10T11:30:13;11.10;;;6.00;;
69629;SDS011;56857;52.212;5.496;2023-05-10T11:32:39;13.07;;;6.15;;
69629;SDS011;56857;52.212;5.496;2023-05-10T11:35:08;11.18;;;6.00;;
69629;SDS011;56857;52.212;5.496;2023-05-10T11:37:34;9.57;;;5.53;;
69629;SDS011;56857;52.212;5.496;2023-05-10T11:40:00;10.05;;;5.22;;
69629;SDS011;56857;52.212;5.496;2023-05-10T11:42:26;9.90;;;5.07;;
69629;SDS011;56857;52.212;5.496;2023-05-10T11:44:53;9.30;;;4.95;;
69629;SDS011;56857;52.212;5.496;2023-05-10T11:47:18;10.25;;;5.53;;
69629;SDS011;56857;52.212;5.496;2023-05-10T11:49:44;10.68;;;5.50;;
69629;SDS011;56857;52.212;5.496;2023-05-10T11:52:09;10.88;;;5.57;;
69629;SDS011;56857;52.212;5.496;2023-05-10T11:54:35;11.10;;;6.03;;
69629;SDS011;56857;52.212;5.496;2023-05-10T11:57:00;10.70;;;5.47;;
69629;SDS011;56857;52.212;5.496;2023-05-10T11:59:25;10.55;;;5.10;;
69629;SDS011;56857;52.212;5.496;2023-05-10T12:01:51;12.30;;;6.00;;
69629;SDS011;56857;52.212;5.496;2023-05-10T12:04:16;11.35;;;5.63;;
69629;SDS011;56857;52.212;5.496;2023-05-10T12:06:42;10.57;;;6.07;;
69629;SDS011;56857;52.212;5.496;2023-05-10T12:09:07;10.77;;;6.22;;
69629;SDS011;56857;52.212;5.496;2023-05-10T12:11:36;11.45;;;5.97;;
69629;SDS011;56857;52.212;5.496;2023-05-10T12:14:04;10.93;;;5.82;;
69629;SDS011;56857;52.212;5.496;2023-05-10T12:16:30;13.40;;;4.88;;
69629;SDS011;56857;52.212;5.496;2023-05-10T12:18:57;9.13;;;5.40;;
69629;SDS011;56857;52.212;5.496;2023-05-10T12:21:23;10.07;;;5.43;;
69629;SDS011;56857;52.212;5.496;2023-05-10T12:23:50;11.50;;;5.55;;
69629;SDS011;56857;52.212;5.496;2023-05-10T12:26:17;9.23;;;5.18;;
69629;SDS011;56857;52.212;5.496;2023-05-10T12:28:43;9.32;;;4.85;;
69629;SDS011;56857;52.212;5.496;2023-05-10T12:31:08;10.07;;;5.07;;
69629;SDS011;56857;52.212;5.496;2023-05-10T12:33:37;9.63;;;4.65;;
69629;SDS011;56857;52.212;5.496;2023-05-10T12:36:07;12.20;;;4.82;;
69629;SDS011;56857;52.212;5.496;2023-05-10T12:38:33;9.38;;;4.20;;
69629;SDS011;56857;52.212;5.496;2023-05-10T12:41:07;8.50;;;4.20;;
69629;SDS011;56857;52.212;5.496;2023-05-10T12:43:34;7.03;;;3.92;;
69629;SDS011;56857;52.212;5.496;2023-05-10T12:46:07;9.63;;;4.32;;
69629;SDS011;56857;52.212;5.496;2023-05-10T12:48:34;9.55;;;3.75;;
69629;SDS011;56857;52.212;5.496;2023-05-10T12:51:01;6.85;;;3.88;;
69629;SDS011;56857;52.212;5.496;2023-05-10T12:53:27;8.98;;;4.90;;
69629;SDS011;56857;52.212;5.496;2023-05-10T12:55:52;9.25;;;4.63;;
69629;SDS011;56857;52.212;5.496;2023-05-10T12:58:17;8.32;;;3.83;;
69629;SDS011;56857;52.212;5.496;2023-05-10T13:00:43;8.20;;;3.47;;
69629;SDS011;56857;52.212;5.496;2023-05-10T13:03:08;8.20;;;3.65;;
69629;SDS011;56857;52.212;5.496;2023-05-10T13:05:33;7.75;;;3.22;;
69629;SDS011;56857;52.212;5.496;2023-05-10T13:07:59;6.45;;;3.00;;
69629;SDS011;56857;52.212;5.496;2023-05-10T13:10:24;5.90;;;2.75;;
69629;SDS011;56857;52.212;5.496;2023-05-10T13:12:50;6.47;;;2.90;;
69629;SDS011;56857;52.212;5.496;2023-05-10T13:15:15;9.32;;;3.10;;
69629;SDS011;56857;52.212;5.496;2023-05-10T13:17:41;6.63;;;3.03;;
69629;SDS011;56857;52.212;5.496;2023-05-10T13:20:07;7.13;;;3.10;;
69629;SDS011;56857;52.212;5.496;2023-05-10T13:22:33;6.65;;;2.72;;
69629;SDS011;56857;52.212;5.496;2023-05-10T13:24:58;8.45;;;3.20;;
69629;SDS011;56857;52.212;5.496;2023-05-10T13:27:24;8.23;;;3.50;;
69629;SDS011;56857;52.212;5.496;2023-05-10T13:29:49;8.05;;;3.33;;
69629;SDS011;56857;52.212;5.496;2023-05-10T13:32:14;8.57;;;3.58;;
69629;SDS011;56857;52.212;5.496;2023-05-10T13:34:40;7.35;;;3.45;;
69629;SDS011;56857;52.212;5.496;2023-05-10T13:37:05;7.57;;;3.05;;
69629;SDS011;56857;52.212;5.496;2023-05-10T13:39:30;7.38;;;3.20;;
69629;SDS011;56857;52.212;5.496;2023-05-10T13:41:55;8.55;;;3.28;;
69629;SDS011;56857;52.212;5.496;2023-05-10T13:44:21;7.57;;;3.30;;
69629;SDS011;56857;52.212;5.496;2023-05-10T13:46:46;7.70;;;3.35;;
69629;SDS011;56857;52.212;5.496;2023-05-10T13:49:12;8.65;;;3.22;;
69629;SDS011;56857;52.212;5.496;2023-05-10T13:51:37;8.00;;;3.40;;
69629;SDS011;56857;52.212;5.496;2023-05-10T13:54:03;8.27;;;3.63;;
69629;SDS011;56857;52.212;5.496;2023-05-10T13:56:28;7.95;;;3.58;;
69629;SDS011;56857;52.212;5.496;2023-05-10T13:58:53;8.00;;;3.38;;
69629;SDS011;56857;52.212;5.496;2023-05-10T14:01:19;7.55;;;3.70;;
69629;SDS011;56857;52.212;5.496;2023-05-10T14:03:44;11.65;;;5.70;;
69629;SDS011;56857;52.212;5.496;2023-05-10T14:06:10;12.32;;;6.55;;
69629;SDS011;56857;52.212;5.496;2023-05-10T14:08:35;13.27;;;6.80;;
69629;SDS011;56857;52.212;5.496;2023-05-10T14:11:00;14.55;;;7.05;;
69629;SDS011;56857;52.212;5.496;2023-05-10T14:13:26;15.35;;;7.85;;
69629;SDS011;56857;52.212;5.496;2023-05-10T14:15:52;16.55;;;7.82;;
69629;SDS011;56857;52.212;5.496;2023-05-10T14:18:18;16.40;;;7.70;;
69629;SDS011;56857;52.212;5.496;2023-05-10T14:20:43;17.83;;;8.27;;
69629;SDS011;56857;52.212;5.496;2023-05-10T14:23:09;15.00;;;7.43;;
69629;SDS011;56857;52.212;5.496;2023-05-10T14:25:34;14.35;;;7.32;;
69629;SDS011;56857;52.212;5.496;2023-05-10T14:27:59;19.25;;;7.97;;
69629;SDS011;56857;52.212;5.496;2023-05-10T14:30:26;17.20;;;7.90;;
69629;SDS011;56857;52.212;5.496;2023-05-10T14:32:51;15.35;;;7.20;;
69629;SDS011;56857;52.212;5.496;2023-05-10T14:35:16;16.52;;;7.72;;
69629;SDS011;56857;52.212;5.496;2023-05-10T14:37:42;15.87;;;7.50;;
69629;SDS011;56857;52.212;5.496;2023-05-10T14:40:07;14.93;;;6.90;;
69629;SDS011;56857;52.212;5.496;2023-05-10T14:42:33;16.25;;;7.28;;
69629;SDS011;56857;52.212;5.496;2023-05-10T14:44:58;15.30;;;7.63;;
69629;SDS011;56857;52.212;5.496;2023-05-10T14:47:23;12.90;;;6.87;;
69629;SDS011;56857;52.212;5.496;2023-05-10T14:49:49;14.32;;;6.35;;
69629;SDS011;56857;52.212;5.496;2023-05-10T14:52:14;13.82;;;6.13;;
69629;SDS011;56857;52.212;5.496;2023-05-10T14:54:39;14.88;;;7.65;;